sensor_id;sensor_type;location;lat;lon;timestamp;P1;durP1;ratioP1;P2;durP2;ratioP2
59181;SDS011;45293;44.606;21.176;2023-02-15T00:01:26;33.17;;;20.05;;
59181;SDS011;45293;44.606;21.176;2023-02-15T00:03:52;34.97;;;19.92;;
59181;SDS011;45293;44.606;21.176;2023-02-15T00:06:18;35.80;;;20.33;;
59181;SDS011;45293;44.606;21.176;2023-02-15T00:08:44;33.28;;;19.85;;
59181;SDS011;45293;44.606;21.176;2023-02-15T00:11:11;35.15;;;19.10;;
59181;SDS011;45293;44.606;21.176;2023-02-15T00:13:37;32.58;;;18.65;;
59181;SDS011;45293;44.606;21.176;2023-02-15T00:16:10;28.90;;;17.95;;
59181;SDS011;45293;44.606;21.176;2023-02-15T00:18:37;30.13;;;18.55;;
59181;SDS011;45293;44.606;21.176;2023-02-15T00:21:04;28.92;;;16.77;;
59181;SDS011;45293;44.606;21.176;2023-02-15T00:23:31;31.30;;;17.75;;
59181;SDS011;45293;44.606;21.176;2023-02-15T00:26:08;31.63;;;17.85;;
59181;SDS011;45293;44.606;21.176;2023-02-15T00:28:34;23.77;;;15.70;;
59181;SDS011;45293;44.606;21.176;2023-02-15T00:31:07;30.55;;;17.73;;
59181;SDS011;45293;44.606;21.176;2023-02-15T00:33:34;29.88;;;18.08;;
59181;SDS011;45293;44.606;21.176;2023-02-15T00:36:00;31.40;;;16.50;;
59181;SDS011;45293;44.606;21.176;2023-02-15T00:38:27;29.85;;;16.13;;
59181;SDS011;45293;44.606;21.176;2023-02-15T00:40:54;28.98;;;15.77;;
59181;SDS011;45293;44.606;21.176;2023-02-15T00:43:20;25.65;;;15.52;;
59181;SDS011;45293;44.606;21.176;2023-02-15T00:45:46;27.40;;;16.20;;
59181;SDS011;45293;44.606;21.176;2023-02-15T00:48:12;25.15;;;15.63;;
59181;SDS011;45293;44.606;21.176;2023-02-15T00:50:38;24.48;;;15.35;;
59181;SDS011;45293;44.606;21.176;2023-02-15T00:53:05;24.63;;;14.68;;
59181;SDS011;45293;44.606;21.176;2023-02-15T00:55:31;22.70;;;13.93;;
59181;SDS011;45293;44.606;21.176;2023-02-15T00:57:57;24.83;;;14.65;;
59181;SDS011;45293;44.606;21.176;2023-02-15T01:00:23;24.15;;;13.48;;
59181;SDS011;45293;44.606;21.176;2023-02-15T01:02:49;18.42;;;12.35;;
59181;SDS011;45293;44.606;21.176;2023-02-15T01:05:15;23.38;;;14.23;;
59181;SDS011;45293;44.606;21.176;2023-02-15T01:07:41;25.15;;;15.02;;
59181;SDS011;45293;44.606;21.176;2023-02-15T01:10:07;21.23;;;13.88;;
59181;SDS011;45293;44.606;21.176;2023-02-15T01:12:34;23.92;;;14.02;;
59181;SDS011;45293;44.606;21.176;2023-02-15T01:15:00;24.52;;;14.60;;
59181;SDS011;45293;44.606;21.176;2023-02-15T01:17:26;23.30;;;14.70;;
59181;SDS011;45293;44.606;21.176;2023-02-15T01:19:52;25.45;;;13.80;;
59181;SDS011;45293;44.606;21.176;2023-02-15T01:22:18;22.35;;;13.75;;
59181;SDS011;45293;44.606;21.176;2023-02-15T01:24:44;18.85;;;11.85;;
59181;SDS011;45293;44.606;21.176;2023-02-15T01:27:10;23.10;;;13.60;;
59181;SDS011;45293;44.606;21.176;2023-02-15T01:29:36;20.35;;;12.63;;
59181;SDS011;45293;44.606;21.176;2023-02-15T01:32:02;20.88;;;12.48;;
59181;SDS011;45293;44.606;21.176;2023-02-15T01:34:29;18.58;;;11.05;;
59181;SDS011;45293;44.606;21.176;2023-02-15T01:36:55;21.70;;;12.43;;
59181;SDS011;45293;44.606;21.176;2023-02-15T01:39:21;20.05;;;12.45;;
59181;SDS011;45293;44.606;21.176;2023-02-15T01:41:47;21.08;;;12.57;;
59181;SDS011;45293;44.606;21.176;2023-02-15T01:46:57;21.60;;;12.48;;
59181;SDS011;45293;44.606;21.176;2023-02-15T01:49:24;19.20;;;11.32;;
59181;SDS011;45293;44.606;21.176;2023-02-15T01:51:52;18.05;;;11.02;;
59181;SDS011;45293;44.606;21.176;2023-02-15T01:54:20;22.08;;;12.10;;
59181;SDS011;45293;44.606;21.176;2023-02-15T01:56:49;18.95;;;11.45;;
59181;SDS011;45293;44.606;21.176;2023-02-15T01:59:16;21.08;;;11.85;;
59181;SDS011;45293;44.606;21.176;2023-02-15T02:01:44;17.52;;;11.02;;
59181;SDS011;45293;44.606;21.176;2023-02-15T02:04:18;14.25;;;9.88;;
59181;SDS011;45293;44.606;21.176;2023-02-15T02:06:48;17.70;;;10.23;;
59181;SDS011;45293;44.606;21.176;2023-02-15T02:09:15;16.15;;;10.27;;
59181;SDS011;45293;44.606;21.176;2023-02-15T02:11:41;15.95;;;9.85;;
59181;SDS011;45293;44.606;21.176;2023-02-15T02:14:08;16.05;;;10.13;;
59181;SDS011;45293;44.606;21.176;2023-02-15T02:19:09;14.77;;;9.77;;
59181;SDS011;45293;44.606;21.176;2023-02-15T02:22:07;16.55;;;10.52;;
59181;SDS011;45293;44.606;21.176;2023-02-15T02:34:43;16.70;;;9.82;;
59181;SDS011;45293;44.606;21.176;2023-02-15T02:39:49;15.02;;;9.48;;
59181;SDS011;45293;44.606;21.176;2023-02-15T02:42:32;17.67;;;9.50;;
59181;SDS011;45293;44.606;21.176;2023-02-15T02:45:05;13.75;;;8.82;;
59181;SDS011;45293;44.606;21.176;2023-02-15T02:47:35;15.18;;;8.77;;
59181;SDS011;45293;44.606;21.176;2023-02-15T02:50:06;16.48;;;9.20;;
59181;SDS011;45293;44.606;21.176;2023-02-15T02:57:33;14.35;;;8.50;;
59181;SDS011;45293;44.606;21.176;2023-02-15T03:00:02;13.88;;;8.70;;
59181;SDS011;45293;44.606;21.176;2023-02-15T03:02:30;13.52;;;7.70;;
59181;SDS011;45293;44.606;21.176;2023-02-15T03:04:59;14.50;;;8.95;;
59181;SDS011;45293;44.606;21.176;2023-02-15T03:07:28;11.75;;;7.70;;
59181;SDS011;45293;44.606;21.176;2023-02-15T03:09:56;11.90;;;8.02;;
59181;SDS011;45293;44.606;21.176;2023-02-15T03:12:24;11.35;;;7.55;;
59181;SDS011;45293;44.606;21.176;2023-02-15T03:14:55;14.15;;;7.85;;
59181;SDS011;45293;44.606;21.176;2023-02-15T03:17:23;12.55;;;7.90;;
59181;SDS011;45293;44.606;21.176;2023-02-15T03:19:52;13.02;;;7.13;;
59181;SDS011;45293;44.606;21.176;2023-02-15T03:22:28;12.68;;;7.47;;
59181;SDS011;45293;44.606;21.176;2023-02-15T03:25:37;10.88;;;7.00;;
59181;SDS011;45293;44.606;21.176;2023-02-15T03:27:45;10.77;;;7.43;;
59181;SDS011;45293;44.606;21.176;2023-02-15T03:30:11;13.18;;;7.43;;
59181;SDS011;45293;44.606;21.176;2023-02-15T03:32:39;13.75;;;8.13;;
59181;SDS011;45293;44.606;21.176;2023-02-15T03:35:06;13.20;;;7.15;;
59181;SDS011;45293;44.606;21.176;2023-02-15T03:37:40;14.20;;;7.68;;
59181;SDS011;45293;44.606;21.176;2023-02-15T03:40:08;13.85;;;8.38;;
59181;SDS011;45293;44.606;21.176;2023-02-15T03:43:02;17.85;;;7.60;;
59181;SDS011;45293;44.606;21.176;2023-02-15T03:45:32;12.38;;;6.72;;
59181;SDS011;45293;44.606;21.176;2023-02-15T03:48:00;11.40;;;7.40;;
59181;SDS011;45293;44.606;21.176;2023-02-15T03:50:27;12.15;;;7.03;;
59181;SDS011;45293;44.606;21.176;2023-02-15T03:53:14;10.70;;;6.70;;
59181;SDS011;45293;44.606;21.176;2023-02-15T03:55:41;10.27;;;6.82;;
59181;SDS011;45293;44.606;21.176;2023-02-15T03:58:07;10.52;;;6.30;;
59181;SDS011;45293;44.606;21.176;2023-02-15T04:00:59;9.45;;;6.13;;
59181;SDS011;45293;44.606;21.176;2023-02-15T04:03:49;10.55;;;6.43;;
59181;SDS011;45293;44.606;21.176;2023-02-15T04:06:17;10.35;;;6.35;;
59181;SDS011;45293;44.606;21.176;2023-02-15T04:08:43;13.15;;;6.40;;
59181;SDS011;45293;44.606;21.176;2023-02-15T04:11:28;10.93;;;6.55;;
59181;SDS011;45293;44.606;21.176;2023-02-15T04:13:54;11.38;;;6.30;;
59181;SDS011;45293;44.606;21.176;2023-02-15T04:16:25;10.52;;;6.13;;
59181;SDS011;45293;44.606;21.176;2023-02-15T04:18:51;9.73;;;6.30;;
59181;SDS011;45293;44.606;21.176;2023-02-15T04:21:36;8.98;;;5.40;;
59181;SDS011;45293;44.606;21.176;2023-02-15T04:24:21;10.40;;;6.32;;
59181;SDS011;45293;44.606;21.176;2023-02-15T04:27:05;8.25;;;5.35;;
59181;SDS011;45293;44.606;21.176;2023-02-15T04:29:31;9.73;;;5.55;;
59181;SDS011;45293;44.606;21.176;2023-02-15T04:31:58;11.25;;;5.85;;
59181;SDS011;45293;44.606;21.176;2023-02-15T04:34:25;8.70;;;5.55;;
59181;SDS011;45293;44.606;21.176;2023-02-15T04:36:51;9.93;;;6.07;;
59181;SDS011;45293;44.606;21.176;2023-02-15T04:39:18;9.27;;;6.25;;
59181;SDS011;45293;44.606;21.176;2023-02-15T04:41:44;11.05;;;5.50;;
59181;SDS011;45293;44.606;21.176;2023-02-15T04:44:11;9.13;;;5.63;;
59181;SDS011;45293;44.606;21.176;2023-02-15T04:46:37;8.88;;;5.20;;
59181;SDS011;45293;44.606;21.176;2023-02-15T04:49:03;8.85;;;5.20;;
59181;SDS011;45293;44.606;21.176;2023-02-15T04:51:29;9.68;;;6.15;;
59181;SDS011;45293;44.606;21.176;2023-02-15T04:53:55;8.75;;;5.70;;
59181;SDS011;45293;44.606;21.176;2023-02-15T04:56:21;10.13;;;5.72;;
59181;SDS011;45293;44.606;21.176;2023-02-15T04:58:47;8.77;;;5.22;;
59181;SDS011;45293;44.606;21.176;2023-02-15T05:01:13;9.18;;;5.20;;
59181;SDS011;45293;44.606;21.176;2023-02-15T05:03:39;9.85;;;5.60;;
59181;SDS011;45293;44.606;21.176;2023-02-15T05:06:06;8.43;;;5.20;;
59181;SDS011;45293;44.606;21.176;2023-02-15T05:08:32;8.30;;;4.80;;
59181;SDS011;45293;44.606;21.176;2023-02-15T05:10:58;8.80;;;5.45;;
59181;SDS011;45293;44.606;21.176;2023-02-15T05:13:24;8.93;;;5.45;;
59181;SDS011;45293;44.606;21.176;2023-02-15T05:15:51;7.63;;;4.70;;
59181;SDS011;45293;44.606;21.176;2023-02-15T05:18:17;10.23;;;5.00;;
59181;SDS011;45293;44.606;21.176;2023-02-15T05:20:43;7.93;;;4.50;;
59181;SDS011;45293;44.606;21.176;2023-02-15T05:23:09;8.13;;;4.90;;
59181;SDS011;45293;44.606;21.176;2023-02-15T05:25:36;7.78;;;4.65;;
59181;SDS011;45293;44.606;21.176;2023-02-15T05:28:21;7.57;;;4.70;;
59181;SDS011;45293;44.606;21.176;2023-02-15T05:30:48;7.18;;;4.47;;
59181;SDS011;45293;44.606;21.176;2023-02-15T05:33:14;8.02;;;4.30;;
59181;SDS011;45293;44.606;21.176;2023-02-15T05:35:40;8.40;;;4.60;;
59181;SDS011;45293;44.606;21.176;2023-02-15T05:38:07;6.68;;;4.25;;
59181;SDS011;45293;44.606;21.176;2023-02-15T05:40:33;8.60;;;4.80;;
59181;SDS011;45293;44.606;21.176;2023-02-15T05:42:59;7.75;;;4.57;;
59181;SDS011;45293;44.606;21.176;2023-02-15T05:45:25;7.70;;;4.25;;
59181;SDS011;45293;44.606;21.176;2023-02-15T05:47:51;8.98;;;4.40;;
59181;SDS011;45293;44.606;21.176;2023-02-15T05:50:17;7.03;;;4.60;;
59181;SDS011;45293;44.606;21.176;2023-02-15T05:52:43;6.75;;;4.00;;
59181;SDS011;45293;44.606;21.176;2023-02-15T05:55:09;7.35;;;4.55;;
59181;SDS011;45293;44.606;21.176;2023-02-15T05:57:35;7.55;;;4.47;;
59181;SDS011;45293;44.606;21.176;2023-02-15T06:00:03;5.82;;;3.95;;
59181;SDS011;45293;44.606;21.176;2023-02-15T06:02:29;7.10;;;4.03;;
59181;SDS011;45293;44.606;21.176;2023-02-15T06:04:55;7.30;;;4.68;;
59181;SDS011;45293;44.606;21.176;2023-02-15T06:07:21;7.78;;;3.80;;
59181;SDS011;45293;44.606;21.176;2023-02-15T06:09:47;7.00;;;3.65;;
59181;SDS011;45293;44.606;21.176;2023-02-15T06:12:13;6.55;;;3.72;;
59181;SDS011;45293;44.606;21.176;2023-02-15T06:14:39;6.53;;;4.10;;
59181;SDS011;45293;44.606;21.176;2023-02-15T06:17:05;5.97;;;3.55;;
59181;SDS011;45293;44.606;21.176;2023-02-15T06:19:31;7.75;;;3.85;;
59181;SDS011;45293;44.606;21.176;2023-02-15T06:21:57;6.00;;;3.72;;
59181;SDS011;45293;44.606;21.176;2023-02-15T06:24:23;7.15;;;4.38;;
59181;SDS011;45293;44.606;21.176;2023-02-15T06:26:49;6.32;;;3.50;;
59181;SDS011;45293;44.606;21.176;2023-02-15T06:29:15;4.95;;;3.47;;
59181;SDS011;45293;44.606;21.176;2023-02-15T06:31:41;5.78;;;3.50;;
59181;SDS011;45293;44.606;21.176;2023-02-15T06:34:08;6.57;;;4.30;;
59181;SDS011;45293;44.606;21.176;2023-02-15T06:36:34;6.78;;;3.72;;
59181;SDS011;45293;44.606;21.176;2023-02-15T06:39:00;5.13;;;3.60;;
59181;SDS011;45293;44.606;21.176;2023-02-15T06:41:27;5.85;;;3.55;;
59181;SDS011;45293;44.606;21.176;2023-02-15T06:43:53;5.95;;;3.53;;
59181;SDS011;45293;44.606;21.176;2023-02-15T06:46:19;6.97;;;3.42;;
59181;SDS011;45293;44.606;21.176;2023-02-15T06:48:45;5.13;;;3.53;;
59181;SDS011;45293;44.606;21.176;2023-02-15T06:51:11;5.90;;;3.35;;
59181;SDS011;45293;44.606;21.176;2023-02-15T06:53:38;5.93;;;3.13;;
59181;SDS011;45293;44.606;21.176;2023-02-15T06:56:06;5.05;;;3.30;;
59181;SDS011;45293;44.606;21.176;2023-02-15T06:58:34;8.75;;;3.83;;
59181;SDS011;45293;44.606;21.176;2023-02-15T07:01:00;4.85;;;3.35;;
59181;SDS011;45293;44.606;21.176;2023-02-15T07:03:26;6.32;;;3.72;;
59181;SDS011;45293;44.606;21.176;2023-02-15T07:05:56;5.45;;;3.40;;
59181;SDS011;45293;44.606;21.176;2023-02-15T07:08:22;5.10;;;3.20;;
59181;SDS011;45293;44.606;21.176;2023-02-15T07:10:48;5.70;;;3.42;;
59181;SDS011;45293;44.606;21.176;2023-02-15T07:13:15;6.18;;;3.22;;
59181;SDS011;45293;44.606;21.176;2023-02-15T07:15:41;4.93;;;2.90;;
59181;SDS011;45293;44.606;21.176;2023-02-15T07:18:07;6.05;;;3.03;;
59181;SDS011;45293;44.606;21.176;2023-02-15T07:20:34;4.47;;;3.33;;
59181;SDS011;45293;44.606;21.176;2023-02-15T07:23:00;4.97;;;3.22;;
59181;SDS011;45293;44.606;21.176;2023-02-15T07:25:26;6.55;;;3.33;;
59181;SDS011;45293;44.606;21.176;2023-02-15T07:27:56;5.40;;;2.85;;
59181;SDS011;45293;44.606;21.176;2023-02-15T07:30:23;4.63;;;2.90;;
59181;SDS011;45293;44.606;21.176;2023-02-15T07:32:49;7.38;;;3.40;;
59181;SDS011;45293;44.606;21.176;2023-02-15T07:35:33;6.57;;;2.75;;
59181;SDS011;45293;44.606;21.176;2023-02-15T07:38:00;4.88;;;3.03;;
59181;SDS011;45293;44.606;21.176;2023-02-15T07:40:26;4.18;;;2.63;;
59181;SDS011;45293;44.606;21.176;2023-02-15T07:42:52;5.53;;;3.03;;
59181;SDS011;45293;44.606;21.176;2023-02-15T07:45:19;5.60;;;3.10;;
59181;SDS011;45293;44.606;21.176;2023-02-15T07:47:46;5.22;;;3.40;;
59181;SDS011;45293;44.606;21.176;2023-02-15T07:50:12;8.13;;;2.90;;
59181;SDS011;45293;44.606;21.176;2023-02-15T07:52:38;4.95;;;2.78;;
59181;SDS011;45293;44.606;21.176;2023-02-15T07:55:04;4.85;;;2.80;;
59181;SDS011;45293;44.606;21.176;2023-02-15T07:57:30;5.70;;;3.38;;
59181;SDS011;45293;44.606;21.176;2023-02-15T07:59:56;4.75;;;2.65;;
59181;SDS011;45293;44.606;21.176;2023-02-15T08:02:22;4.15;;;2.58;;
59181;SDS011;45293;44.606;21.176;2023-02-15T08:04:48;6.78;;;3.17;;
59181;SDS011;45293;44.606;21.176;2023-02-15T08:07:15;4.22;;;2.67;;
59181;SDS011;45293;44.606;21.176;2023-02-15T08:09:41;5.78;;;3.33;;
59181;SDS011;45293;44.606;21.176;2023-02-15T08:12:07;5.63;;;2.90;;
59181;SDS011;45293;44.606;21.176;2023-02-15T08:14:33;4.72;;;2.88;;
59181;SDS011;45293;44.606;21.176;2023-02-15T08:17:00;4.43;;;2.63;;
59181;SDS011;45293;44.606;21.176;2023-02-15T08:19:30;16.98;;;4.63;;
59181;SDS011;45293;44.606;21.176;2023-02-15T08:22:04;11.88;;;2.70;;
59181;SDS011;45293;44.606;21.176;2023-02-15T08:24:34;3.92;;;2.50;;
59181;SDS011;45293;44.606;21.176;2023-02-15T08:27:02;4.03;;;2.45;;
59181;SDS011;45293;44.606;21.176;2023-02-15T08:29:28;5.05;;;2.35;;
59181;SDS011;45293;44.606;21.176;2023-02-15T08:32:02;6.72;;;2.80;;
59181;SDS011;45293;44.606;21.176;2023-02-15T08:34:29;5.05;;;2.90;;
59181;SDS011;45293;44.606;21.176;2023-02-15T08:36:56;4.55;;;2.95;;
59181;SDS011;45293;44.606;21.176;2023-02-15T08:39:22;4.25;;;2.40;;
59181;SDS011;45293;44.606;21.176;2023-02-15T08:41:48;4.13;;;2.70;;
59181;SDS011;45293;44.606;21.176;2023-02-15T08:44:15;4.55;;;2.63;;
59181;SDS011;45293;44.606;21.176;2023-02-15T08:46:42;4.03;;;2.50;;
59181;SDS011;45293;44.606;21.176;2023-02-15T08:49:09;4.68;;;2.67;;
59181;SDS011;45293;44.606;21.176;2023-02-15T08:51:36;6.38;;;2.90;;
59181;SDS011;45293;44.606;21.176;2023-02-15T08:54:04;3.80;;;2.30;;
59181;SDS011;45293;44.606;21.176;2023-02-15T08:56:34;3.90;;;2.40;;
59181;SDS011;45293;44.606;21.176;2023-02-15T08:59:01;4.05;;;2.55;;
59181;SDS011;45293;44.606;21.176;2023-02-15T09:01:28;4.13;;;2.30;;
59181;SDS011;45293;44.606;21.176;2023-02-15T09:03:59;8.35;;;2.67;;
59181;SDS011;45293;44.606;21.176;2023-02-15T09:06:25;5.60;;;2.58;;
59181;SDS011;45293;44.606;21.176;2023-02-15T09:08:52;13.52;;;2.78;;
59181;SDS011;45293;44.606;21.176;2023-02-15T09:11:20;5.93;;;1.92;;
59181;SDS011;45293;44.606;21.176;2023-02-15T09:13:51;11.38;;;2.63;;
59181;SDS011;45293;44.606;21.176;2023-02-15T09:16:18;5.57;;;2.38;;
59181;SDS011;45293;44.606;21.176;2023-02-15T09:18:45;11.23;;;3.70;;
59181;SDS011;45293;44.606;21.176;2023-02-15T09:21:12;10.95;;;4.22;;
59181;SDS011;45293;44.606;21.176;2023-02-15T09:23:42;15.70;;;5.10;;
59181;SDS011;45293;44.606;21.176;2023-02-15T09:26:10;15.05;;;3.60;;
59181;SDS011;45293;44.606;21.176;2023-02-15T09:28:36;10.38;;;3.42;;
59181;SDS011;45293;44.606;21.176;2023-02-15T09:31:10;7.53;;;3.17;;
59181;SDS011;45293;44.606;21.176;2023-02-15T09:33:36;5.55;;;3.00;;
59181;SDS011;45293;44.606;21.176;2023-02-15T09:36:03;9.55;;;2.97;;
59181;SDS011;45293;44.606;21.176;2023-02-15T09:38:29;5.43;;;3.13;;
59181;SDS011;45293;44.606;21.176;2023-02-15T09:41:20;8.50;;;3.63;;
59181;SDS011;45293;44.606;21.176;2023-02-15T09:48:56;7.88;;;3.30;;
59181;SDS011;45293;44.606;21.176;2023-02-15T09:51:30;13.45;;;2.97;;
59181;SDS011;45293;44.606;21.176;2023-02-15T09:59:00;9.40;;;3.30;;
59181;SDS011;45293;44.606;21.176;2023-02-15T10:09:33;6.55;;;3.25;;
59181;SDS011;45293;44.606;21.176;2023-02-15T10:12:04;7.47;;;2.67;;
59181;SDS011;45293;44.606;21.176;2023-02-15T10:19:51;5.05;;;2.47;;
59181;SDS011;45293;44.606;21.176;2023-02-15T10:25:13;6.80;;;2.90;;
59181;SDS011;45293;44.606;21.176;2023-02-15T10:27:44;7.22;;;3.05;;
59181;SDS011;45293;44.606;21.176;2023-02-15T10:30:12;4.90;;;2.65;;
59181;SDS011;45293;44.606;21.176;2023-02-15T10:32:45;4.80;;;2.63;;
59181;SDS011;45293;44.606;21.176;2023-02-15T10:35:24;4.10;;;2.58;;
59181;SDS011;45293;44.606;21.176;2023-02-15T10:43:08;5.15;;;2.63;;
59181;SDS011;45293;44.606;21.176;2023-02-15T10:48:11;5.05;;;2.50;;
59181;SDS011;45293;44.606;21.176;2023-02-15T11:01:00;6.05;;;2.55;;
59181;SDS011;45293;44.606;21.176;2023-02-15T11:03:51;4.25;;;2.90;;
59181;SDS011;45293;44.606;21.176;2023-02-15T11:06:18;4.03;;;2.40;;
59181;SDS011;45293;44.606;21.176;2023-02-15T11:08:48;13.25;;;2.95;;
59181;SDS011;45293;44.606;21.176;2023-02-15T11:11:21;7.57;;;2.72;;
59181;SDS011;45293;44.606;21.176;2023-02-15T11:13:48;10.55;;;2.80;;
59181;SDS011;45293;44.606;21.176;2023-02-15T11:16:17;5.03;;;2.47;;
59181;SDS011;45293;44.606;21.176;2023-02-15T11:18:59;4.57;;;2.70;;
59181;SDS011;45293;44.606;21.176;2023-02-15T11:23:54;13.65;;;2.53;;
59181;SDS011;45293;44.606;21.176;2023-02-15T11:26:31;35.88;;;3.88;;
59181;SDS011;45293;44.606;21.176;2023-02-15T11:29:01;11.07;;;2.60;;
59181;SDS011;45293;44.606;21.176;2023-02-15T11:34:37;13.70;;;3.42;;
59181;SDS011;45293;44.606;21.176;2023-02-15T11:37:05;20.15;;;2.40;;
59181;SDS011;45293;44.606;21.176;2023-02-15T11:39:32;9.90;;;2.90;;
59181;SDS011;45293;44.606;21.176;2023-02-15T11:42:04;4.97;;;2.60;;
59181;SDS011;45293;44.606;21.176;2023-02-15T11:44:36;8.43;;;3.13;;
59181;SDS011;45293;44.606;21.176;2023-02-15T11:47:09;9.93;;;2.47;;
59181;SDS011;45293;44.606;21.176;2023-02-15T11:49:36;11.90;;;2.40;;
59181;SDS011;45293;44.606;21.176;2023-02-15T11:52:05;8.38;;;2.50;;
59181;SDS011;45293;44.606;21.176;2023-02-15T11:54:32;12.30;;;2.80;;
59181;SDS011;45293;44.606;21.176;2023-02-15T11:57:23;4.95;;;2.45;;
59181;SDS011;45293;44.606;21.176;2023-02-15T11:59:48;8.73;;;2.25;;
59181;SDS011;45293;44.606;21.176;2023-02-15T12:02:19;6.70;;;2.20;;
59181;SDS011;45293;44.606;21.176;2023-02-15T12:04:50;8.60;;;2.28;;
59181;SDS011;45293;44.606;21.176;2023-02-15T12:07:28;7.38;;;2.50;;
59181;SDS011;45293;44.606;21.176;2023-02-15T12:09:58;5.15;;;1.95;;
59181;SDS011;45293;44.606;21.176;2023-02-15T12:14:53;8.43;;;2.80;;
59181;SDS011;45293;44.606;21.176;2023-02-15T12:17:23;9.95;;;3.78;;
59181;SDS011;45293;44.606;21.176;2023-02-15T12:19:50;28.70;;;3.05;;
59181;SDS011;45293;44.606;21.176;2023-02-15T12:22:20;22.35;;;2.80;;
59181;SDS011;45293;44.606;21.176;2023-02-15T12:24:49;8.63;;;2.85;;
59181;SDS011;45293;44.606;21.176;2023-02-15T12:27:18;18.02;;;3.67;;
59181;SDS011;45293;44.606;21.176;2023-02-15T12:32:17;25.65;;;3.13;;
59181;SDS011;45293;44.606;21.176;2023-02-15T12:34:44;15.63;;;4.10;;
59181;SDS011;45293;44.606;21.176;2023-02-15T12:37:23;14.98;;;3.28;;
59181;SDS011;45293;44.606;21.176;2023-02-15T12:39:53;17.70;;;3.13;;
59181;SDS011;45293;44.606;21.176;2023-02-15T12:42:20;6.13;;;2.85;;
59181;SDS011;45293;44.606;21.176;2023-02-15T12:44:54;13.75;;;3.20;;
59181;SDS011;45293;44.606;21.176;2023-02-15T12:47:20;16.75;;;3.08;;
59181;SDS011;45293;44.606;21.176;2023-02-15T12:52:36;5.78;;;3.65;;
59181;SDS011;45293;44.606;21.176;2023-02-15T12:55:18;18.88;;;3.50;;
59181;SDS011;45293;44.606;21.176;2023-02-15T12:57:45;4.47;;;2.50;;
59181;SDS011;45293;44.606;21.176;2023-02-15T13:07:46;11.40;;;2.45;;
59181;SDS011;45293;44.606;21.176;2023-02-15T13:10:19;18.42;;;3.70;;
59181;SDS011;45293;44.606;21.176;2023-02-15T13:12:46;14.30;;;3.03;;
59181;SDS011;45293;44.606;21.176;2023-02-15T13:15:22;16.45;;;2.72;;
59181;SDS011;45293;44.606;21.176;2023-02-15T13:17:49;10.88;;;2.90;;
59181;SDS011;45293;44.606;21.176;2023-02-15T13:20:19;15.43;;;2.65;;
59181;SDS011;45293;44.606;21.176;2023-02-15T13:22:50;6.30;;;2.78;;
59181;SDS011;45293;44.606;21.176;2023-02-15T13:25:19;9.15;;;2.38;;
59181;SDS011;45293;44.606;21.176;2023-02-15T13:27:48;12.18;;;2.30;;
59181;SDS011;45293;44.606;21.176;2023-02-15T13:30:23;13.05;;;2.78;;
59181;SDS011;45293;44.606;21.176;2023-02-15T13:33:02;10.93;;;2.65;;
59181;SDS011;45293;44.606;21.176;2023-02-15T13:35:30;5.03;;;2.63;;
59181;SDS011;45293;44.606;21.176;2023-02-15T13:40:33;8.15;;;2.90;;
59181;SDS011;45293;44.606;21.176;2023-02-15T13:43:15;11.07;;;4.07;;
59181;SDS011;45293;44.606;21.176;2023-02-15T13:50:59;15.32;;;3.58;;
59181;SDS011;45293;44.606;21.176;2023-02-15T13:55:55;5.78;;;3.45;;
59181;SDS011;45293;44.606;21.176;2023-02-15T14:08:29;15.68;;;4.50;;
59181;SDS011;45293;44.606;21.176;2023-02-15T14:16:41;17.45;;;4.38;;
59181;SDS011;45293;44.606;21.176;2023-02-15T14:19:09;19.65;;;4.55;;
59181;SDS011;45293;44.606;21.176;2023-02-15T14:27:47;17.30;;;4.47;;
59181;SDS011;45293;44.606;21.176;2023-02-15T14:30:15;10.77;;;3.58;;
59181;SDS011;45293;44.606;21.176;2023-02-15T14:32:45;21.83;;;3.90;;
59181;SDS011;45293;44.606;21.176;2023-02-15T14:35:17;13.48;;;3.88;;
59181;SDS011;45293;44.606;21.176;2023-02-15T14:37:55;13.80;;;3.70;;
59181;SDS011;45293;44.606;21.176;2023-02-15T14:43:47;13.18;;;3.75;;
59181;SDS011;45293;44.606;21.176;2023-02-15T14:48:48;9.52;;;3.55;;
59181;SDS011;45293;44.606;21.176;2023-02-15T14:54:00;9.20;;;4.70;;
59181;SDS011;45293;44.606;21.176;2023-02-15T14:56:26;9.45;;;3.40;;
59181;SDS011;45293;44.606;21.176;2023-02-15T15:04:12;6.72;;;3.85;;
59181;SDS011;45293;44.606;21.176;2023-02-15T15:06:42;16.50;;;3.70;;
59181;SDS011;45293;44.606;21.176;2023-02-15T15:09:10;5.53;;;3.47;;
59181;SDS011;45293;44.606;21.176;2023-02-15T15:11:38;9.65;;;3.25;;
59181;SDS011;45293;44.606;21.176;2023-02-15T15:14:05;7.88;;;3.15;;
59181;SDS011;45293;44.606;21.176;2023-02-15T15:19:04;7.55;;;3.33;;
59181;SDS011;45293;44.606;21.176;2023-02-15T15:29:42;4.93;;;3.00;;
59181;SDS011;45293;44.606;21.176;2023-02-15T15:32:08;14.40;;;3.70;;
59181;SDS011;45293;44.606;21.176;2023-02-15T15:35:00;5.45;;;3.60;;
59181;SDS011;45293;44.606;21.176;2023-02-15T15:50:33;7.35;;;3.25;;
59181;SDS011;45293;44.606;21.176;2023-02-15T15:53:00;6.25;;;3.60;;
59181;SDS011;45293;44.606;21.176;2023-02-15T15:55:27;9.63;;;3.08;;
59181;SDS011;45293;44.606;21.176;2023-02-15T15:57:56;5.68;;;3.47;;
59181;SDS011;45293;44.606;21.176;2023-02-15T16:00:41;7.60;;;3.40;;
59181;SDS011;45293;44.606;21.176;2023-02-15T16:03:16;13.13;;;3.25;;
59181;SDS011;45293;44.606;21.176;2023-02-15T16:05:42;7.17;;;2.97;;
59181;SDS011;45293;44.606;21.176;2023-02-15T16:08:08;6.90;;;3.28;;
59181;SDS011;45293;44.606;21.176;2023-02-15T16:10:34;5.65;;;2.92;;
59181;SDS011;45293;44.606;21.176;2023-02-15T16:13:02;6.05;;;3.63;;
59181;SDS011;45293;44.606;21.176;2023-02-15T16:18:01;4.32;;;2.95;;
59181;SDS011;45293;44.606;21.176;2023-02-15T16:20:29;4.85;;;2.83;;
59181;SDS011;45293;44.606;21.176;2023-02-15T16:25:37;7.65;;;3.33;;
59181;SDS011;45293;44.606;21.176;2023-02-15T16:28:08;6.78;;;2.88;;
59181;SDS011;45293;44.606;21.176;2023-02-15T16:30:37;5.30;;;3.30;;
59181;SDS011;45293;44.606;21.176;2023-02-15T16:33:14;8.60;;;3.08;;
59181;SDS011;45293;44.606;21.176;2023-02-15T16:36:02;3.90;;;2.63;;
59181;SDS011;45293;44.606;21.176;2023-02-15T16:41:29;5.45;;;2.95;;
59181;SDS011;45293;44.606;21.176;2023-02-15T16:43:55;6.45;;;2.90;;
59181;SDS011;45293;44.606;21.176;2023-02-15T16:46:26;4.68;;;2.72;;
59181;SDS011;45293;44.606;21.176;2023-02-15T16:48:52;10.27;;;3.20;;
59181;SDS011;45293;44.606;21.176;2023-02-15T16:51:23;5.90;;;3.20;;
59181;SDS011;45293;44.606;21.176;2023-02-15T16:53:50;8.55;;;2.78;;
59181;SDS011;45293;44.606;21.176;2023-02-15T16:56:17;4.63;;;3.35;;
59181;SDS011;45293;44.606;21.176;2023-02-15T16:58:49;4.07;;;2.92;;
59181;SDS011;45293;44.606;21.176;2023-02-15T17:01:16;5.75;;;2.63;;
59181;SDS011;45293;44.606;21.176;2023-02-15T17:03:45;3.30;;;2.20;;
59181;SDS011;45293;44.606;21.176;2023-02-15T17:06:19;5.45;;;2.85;;
59181;SDS011;45293;44.606;21.176;2023-02-15T17:08:45;4.97;;;2.70;;
59181;SDS011;45293;44.606;21.176;2023-02-15T17:11:22;5.57;;;3.08;;
59181;SDS011;45293;44.606;21.176;2023-02-15T17:16:35;4.53;;;2.60;;
59181;SDS011;45293;44.606;21.176;2023-02-15T17:19:02;5.85;;;2.92;;
59181;SDS011;45293;44.606;21.176;2023-02-15T17:21:36;4.88;;;2.70;;
59181;SDS011;45293;44.606;21.176;2023-02-15T17:24:03;3.85;;;2.63;;
59181;SDS011;45293;44.606;21.176;2023-02-15T17:28:56;4.90;;;2.17;;